MDSD/SDQ METAR and TAF weather

Enter ICAO airport designator
Station Type Date Time Source
MDSD METAR 2021/09/28 15:00 UTC NOAA

MDSD 281500Z 00000KT 9999 FEW022 30/25 Q1013


Station Type Date Time Source
MDSD Decoded METAR 2021/09/28 15:00 UTC NOAA

Las Americas, Dominican Republic (MDSD) 18-26N 069-40W
Sep 28, 2021 - 11:00 AM EDT / 2021.09.28 1500 UTC
Wind: Calm:0
Visibility: greater than 7 mile(s):0
Sky conditions: mostly clear
Temperature: 86 F (30 C)
Heat index: 96.8 F (36.0 C):1
Dew Point: 77 F (25 C)
Relative Humidity: 74%
Pressure (altimeter): 29.91 in. Hg (1013 hPa)
ob: MDSD 281500Z 00000KT 9999 FEW022 30/25 Q1013
cycle: 15

Station Type Date Time Source
MDSD TAF 2021/09/28 12:59 UTC NOAA

TAF MDSD 281000Z 2812/2912 00000KT 9999 SCT018 SCT300
BECMG 2813/2815 05004KT PROB30 2901/2906 7000 -TSRA FEW016CB BKN018 SCT300

Example: see airport list